sensor_id;sensor_type;location;lat;lon;timestamp;temperature;humidity
75683;HTU21D;64295;44.772;39.872;2023-03-14T00:01:50;4.05;65.88
75683;HTU21D;64295;44.772;39.872;2023-03-14T00:04:16;4.02;65.96
75683;HTU21D;64295;44.772;39.872;2023-03-14T00:06:42;4.00;65.96
75683;HTU21D;64295;44.772;39.872;2023-03-14T00:09:08;3.99;65.99
75683;HTU21D;64295;44.772;39.872;2023-03-14T00:11:34;3.97;66.01
75683;HTU21D;64295;44.772;39.872;2023-03-14T00:13:59;3.97;66.04
75683;HTU21D;64295;44.772;39.872;2023-03-14T00:16:26;4.02;65.91
75683;HTU21D;64295;44.772;39.872;2023-03-14T00:18:52;4.03;65.94
75683;HTU21D;64295;44.772;39.872;2023-03-14T00:21:18;4.04;65.92
75683;HTU21D;64295;44.772;39.872;2023-03-14T00:23:44;4.00;65.99
75683;HTU21D;64295;44.772;39.872;2023-03-14T00:26:17;3.95;66.14
75683;HTU21D;64295;44.772;39.872;2023-03-14T00:28:43;3.92;66.20
75683;HTU21D;64295;44.772;39.872;2023-03-14T00:31:12;3.95;66.13
75683;HTU21D;64295;44.772;39.872;2023-03-14T00:33:40;3.95;66.11
75683;HTU21D;64295;44.772;39.872;2023-03-14T00:36:09;3.95;66.10
75683;HTU21D;64295;44.772;39.872;2023-03-14T00:38:36;3.98;66.09
75683;HTU21D;64295;44.772;39.872;2023-03-14T00:41:09;3.99;65.96
75683;HTU21D;64295;44.772;39.872;2023-03-14T00:43:36;3.98;65.96
75683;HTU21D;64295;44.772;39.872;2023-03-14T00:46:02;3.98;66.01
75683;HTU21D;64295;44.772;39.872;2023-03-14T00:48:28;3.99;66.07
75683;HTU21D;64295;44.772;39.872;2023-03-14T00:50:54;4.00;66.02
75683;HTU21D;64295;44.772;39.872;2023-03-14T00:53:21;3.97;66.09
75683;HTU21D;64295;44.772;39.872;2023-03-14T00:55:47;3.97;66.10
75683;HTU21D;64295;44.772;39.872;2023-03-14T00:58:15;3.99;66.07
75683;HTU21D;64295;44.772;39.872;2023-03-14T01:00:42;3.97;66.13
75683;HTU21D;64295;44.772;39.872;2023-03-14T01:03:09;3.97;66.14
75683;HTU21D;64295;44.772;39.872;2023-03-14T01:05:35;3.98;66.12
75683;HTU21D;64295;44.772;39.872;2023-03-14T01:08:01;3.98;66.15
75683;HTU21D;64295;44.772;39.872;2023-03-14T01:10:27;4.01;66.16
75683;HTU21D;64295;44.772;39.872;2023-03-14T01:12:53;4.01;66.15
75683;HTU21D;64295;44.772;39.872;2023-03-14T01:15:19;3.98;66.23
75683;HTU21D;64295;44.772;39.872;2023-03-14T01:17:45;3.99;66.24
75683;HTU21D;64295;44.772;39.872;2023-03-14T01:20:12;3.97;66.28
75683;HTU21D;64295;44.772;39.872;2023-03-14T01:22:39;3.97;66.31
75683;HTU21D;64295;44.772;39.872;2023-03-14T01:25:14;3.99;66.32
75683;HTU21D;64295;44.772;39.872;2023-03-14T01:27:41;3.98;66.31
75683;HTU21D;64295;44.772;39.872;2023-03-14T01:30:08;3.94;66.40
75683;HTU21D;64295;44.772;39.872;2023-03-14T01:32:34;3.93;66.43
75683;HTU21D;64295;44.772;39.872;2023-03-14T01:35:00;3.97;66.42
75683;HTU21D;64295;44.772;39.872;2023-03-14T01:37:26;3.95;66.43
75683;HTU21D;64295;44.772;39.872;2023-03-14T01:39:52;3.98;66.43
75683;HTU21D;64295;44.772;39.872;2023-03-14T01:42:19;4.03;66.33
75683;HTU21D;64295;44.772;39.872;2023-03-14T01:44:50;4.05;66.32
75683;HTU21D;64295;44.772;39.872;2023-03-14T01:47:16;4.05;66.33
75683;HTU21D;64295;44.772;39.872;2023-03-14T01:49:43;4.05;66.33
75683;HTU21D;64295;44.772;39.872;2023-03-14T01:52:26;4.03;66.38
75683;HTU21D;64295;44.772;39.872;2023-03-14T01:55:02;4.02;66.45
75683;HTU21D;64295;44.772;39.872;2023-03-14T01:57:33;4.03;66.42
75683;HTU21D;64295;44.772;39.872;2023-03-14T02:00:05;4.02;66.34
75683;HTU21D;64295;44.772;39.872;2023-03-14T02:02:47;4.00;66.43
75683;HTU21D;64295;44.772;39.872;2023-03-14T02:05:19;3.98;66.43
75683;HTU21D;64295;44.772;39.872;2023-03-14T02:07:55;4.02;66.41
75683;HTU21D;64295;44.772;39.872;2023-03-14T02:10:29;4.04;66.37
75683;HTU21D;64295;44.772;39.872;2023-03-14T02:13:00;4.07;66.33
75683;HTU21D;64295;44.772;39.872;2023-03-14T02:15:50;4.06;66.30
75683;HTU21D;64295;44.772;39.872;2023-03-14T02:18:37;4.04;66.40
75683;HTU21D;64295;44.772;39.872;2023-03-14T02:23:58;4.07;66.36
75683;HTU21D;64295;44.772;39.872;2023-03-14T02:26:34;4.05;66.40
75683;HTU21D;64295;44.772;39.872;2023-03-14T02:29:02;4.07;66.40
75683;HTU21D;64295;44.772;39.872;2023-03-14T02:31:29;4.08;66.39
75683;HTU21D;64295;44.772;39.872;2023-03-14T02:33:56;4.10;66.36
75683;HTU21D;64295;44.772;39.872;2023-03-14T02:36:23;4.08;66.40
75683;HTU21D;64295;44.772;39.872;2023-03-14T02:39:11;4.10;66.42
75683;HTU21D;64295;44.772;39.872;2023-03-14T02:41:42;4.13;66.28
75683;HTU21D;64295;44.772;39.872;2023-03-14T02:44:10;4.12;66.32
75683;HTU21D;64295;44.772;39.872;2023-03-14T02:46:37;4.10;66.34
75683;HTU21D;64295;44.772;39.872;2023-03-14T02:49:11;4.10;66.37
75683;HTU21D;64295;44.772;39.872;2023-03-14T02:51:37;4.10;66.40
75683;HTU21D;64295;44.772;39.872;2023-03-14T02:54:05;4.09;66.42
75683;HTU21D;64295;44.772;39.872;2023-03-14T02:56:32;4.09;66.43
75683;HTU21D;64295;44.772;39.872;2023-03-14T02:59:05;4.15;66.34
75683;HTU21D;64295;44.772;39.872;2023-03-14T03:02:03;4.16;66.24
75683;HTU21D;64295;44.772;39.872;2023-03-14T03:04:30;4.15;66.32
75683;HTU21D;64295;44.772;39.872;2023-03-14T03:06:56;4.15;66.32
75683;HTU21D;64295;44.772;39.872;2023-03-14T03:09:22;4.14;66.35
75683;HTU21D;64295;44.772;39.872;2023-03-14T03:11:50;4.15;66.32
75683;HTU21D;64295;44.772;39.872;2023-03-14T03:14:20;4.15;66.33
75683;HTU21D;64295;44.772;39.872;2023-03-14T03:16:46;4.14;66.38
75683;HTU21D;64295;44.772;39.872;2023-03-14T03:19:12;4.13;66.40
75683;HTU21D;64295;44.772;39.872;2023-03-14T03:21:39;4.14;66.40
75683;HTU21D;64295;44.772;39.872;2023-03-14T03:24:05;4.17;66.36
75683;HTU21D;64295;44.772;39.872;2023-03-14T03:26:36;4.17;66.32
75683;HTU21D;64295;44.772;39.872;2023-03-14T03:29:04;4.18;66.32
75683;HTU21D;64295;44.772;39.872;2023-03-14T03:31:30;4.15;66.36
75683;HTU21D;64295;44.772;39.872;2023-03-14T03:33:56;4.14;66.41
75683;HTU21D;64295;44.772;39.872;2023-03-14T03:36:25;4.15;66.38
75683;HTU21D;64295;44.772;39.872;2023-03-14T03:38:51;4.16;66.38
75683;HTU21D;64295;44.772;39.872;2023-03-14T03:41:17;4.16;66.35
75683;HTU21D;64295;44.772;39.872;2023-03-14T03:43:43;4.14;66.37
75683;HTU21D;64295;44.772;39.872;2023-03-14T03:46:12;4.15;66.36
75683;HTU21D;64295;44.772;39.872;2023-03-14T03:48:38;4.16;66.35
75683;HTU21D;64295;44.772;39.872;2023-03-14T03:51:05;4.17;66.33
75683;HTU21D;64295;44.772;39.872;2023-03-14T03:53:32;4.20;66.30
75683;HTU21D;64295;44.772;39.872;2023-03-14T03:55:58;4.23;66.26
75683;HTU21D;64295;44.772;39.872;2023-03-14T03:58:24;4.24;66.24
75683;HTU21D;64295;44.772;39.872;2023-03-14T04:00:54;4.29;66.15
75683;HTU21D;64295;44.772;39.872;2023-03-14T04:03:20;4.28;66.20
75683;HTU21D;64295;44.772;39.872;2023-03-14T04:05:46;4.29;66.23
75683;HTU21D;64295;44.772;39.872;2023-03-14T04:08:12;4.30;66.20
75683;HTU21D;64295;44.772;39.872;2023-03-14T04:10:38;4.28;66.23
75683;HTU21D;64295;44.772;39.872;2023-03-14T04:13:27;4.34;66.20
75683;HTU21D;64295;44.772;39.872;2023-03-14T04:15:55;4.36;66.14
75683;HTU21D;64295;44.772;39.872;2023-03-14T04:18:26;4.37;66.11
75683;HTU21D;64295;44.772;39.872;2023-03-14T04:20:54;4.42;66.10
75683;HTU21D;64295;44.772;39.872;2023-03-14T04:23:23;4.42;66.10
75683;HTU21D;64295;44.772;39.872;2023-03-14T04:25:51;4.39;66.20
75683;HTU21D;64295;44.772;39.872;2023-03-14T04:28:17;4.38;66.19
75683;HTU21D;64295;44.772;39.872;2023-03-14T04:30:43;4.37;66.22
75683;HTU21D;64295;44.772;39.872;2023-03-14T04:33:13;4.37;66.27
75683;HTU21D;64295;44.772;39.872;2023-03-14T04:35:47;4.38;66.25
75683;HTU21D;64295;44.772;39.872;2023-03-14T04:38:16;4.41;66.21
75683;HTU21D;64295;44.772;39.872;2023-03-14T04:40:44;4.42;66.21
75683;HTU21D;64295;44.772;39.872;2023-03-14T04:43:11;4.44;66.19
75683;HTU21D;64295;44.772;39.872;2023-03-14T04:45:45;4.44;66.17
75683;HTU21D;64295;44.772;39.872;2023-03-14T04:48:11;4.47;66.19
75683;HTU21D;64295;44.772;39.872;2023-03-14T04:50:38;4.50;66.14
75683;HTU21D;64295;44.772;39.872;2023-03-14T04:53:04;4.51;66.14
75683;HTU21D;64295;44.772;39.872;2023-03-14T04:55:31;4.49;66.17
75683;HTU21D;64295;44.772;39.872;2023-03-14T04:57:58;4.50;66.20
75683;HTU21D;64295;44.772;39.872;2023-03-14T05:00:24;4.50;66.20
75683;HTU21D;64295;44.772;39.872;2023-03-14T05:03:10;4.52;66.16
75683;HTU21D;64295;44.772;39.872;2023-03-14T05:05:55;4.50;66.21
75683;HTU21D;64295;44.772;39.872;2023-03-14T05:08:58;4.54;66.16
75683;HTU21D;64295;44.772;39.872;2023-03-14T05:11:41;4.54;66.19
75683;HTU21D;64295;44.772;39.872;2023-03-14T05:14:27;4.59;66.10
75683;HTU21D;64295;44.772;39.872;2023-03-14T05:17:16;4.62;66.09
75683;HTU21D;64295;44.772;39.872;2023-03-14T05:20:02;4.68;66.04
75683;HTU21D;64295;44.772;39.872;2023-03-14T05:22:52;4.73;65.94
75683;HTU21D;64295;44.772;39.872;2023-03-14T05:25:43;4.80;65.88
75683;HTU21D;64295;44.772;39.872;2023-03-14T05:28:39;4.77;65.91
75683;HTU21D;64295;44.772;39.872;2023-03-14T05:31:13;4.79;65.96
75683;HTU21D;64295;44.772;39.872;2023-03-14T05:34:01;4.86;65.87
75683;HTU21D;64295;44.772;39.872;2023-03-14T05:36:46;4.86;65.88
75683;HTU21D;64295;44.772;39.872;2023-03-14T05:39:32;4.83;65.95
75683;HTU21D;64295;44.772;39.872;2023-03-14T05:42:27;4.86;65.98
75683;HTU21D;64295;44.772;39.872;2023-03-14T05:45:07;4.89;65.97
75683;HTU21D;64295;44.772;39.872;2023-03-14T05:47:59;4.90;66.03
75683;HTU21D;64295;44.772;39.872;2023-03-14T05:50:57;4.93;66.00
75683;HTU21D;64295;44.772;39.872;2023-03-14T05:53:43;4.97;66.04
75683;HTU21D;64295;44.772;39.872;2023-03-14T05:56:19;5.06;65.91
75683;HTU21D;64295;44.772;39.872;2023-03-14T05:59:01;5.21;65.72
75683;HTU21D;64295;44.772;39.872;2023-03-14T06:01:55;5.30;65.63
75683;HTU21D;64295;44.772;39.872;2023-03-14T06:04:24;5.46;65.40
75683;HTU21D;64295;44.772;39.872;2023-03-14T06:06:54;5.46;65.40
75683;HTU21D;64295;44.772;39.872;2023-03-14T06:09:21;5.51;65.43
75683;HTU21D;64295;44.772;39.872;2023-03-14T06:11:50;5.50;65.53
75683;HTU21D;64295;44.772;39.872;2023-03-14T06:14:16;5.49;65.62
75683;HTU21D;64295;44.772;39.872;2023-03-14T06:16:46;5.49;65.66
75683;HTU21D;64295;44.772;39.872;2023-03-14T06:19:13;5.53;65.63
75683;HTU21D;64295;44.772;39.872;2023-03-14T06:21:40;5.57;65.60
75683;HTU21D;64295;44.772;39.872;2023-03-14T06:24:06;5.61;65.56
75683;HTU21D;64295;44.772;39.872;2023-03-14T06:26:39;5.65;65.56
75683;HTU21D;64295;44.772;39.872;2023-03-14T06:29:06;5.67;65.55
75683;HTU21D;64295;44.772;39.872;2023-03-14T06:31:34;5.74;65.51
75683;HTU21D;64295;44.772;39.872;2023-03-14T06:34:03;5.78;65.42
75683;HTU21D;64295;44.772;39.872;2023-03-14T06:36:30;5.81;65.43
75683;HTU21D;64295;44.772;39.872;2023-03-14T06:38:57;5.82;65.41
75683;HTU21D;64295;44.772;39.872;2023-03-14T06:41:29;5.86;65.42
75683;HTU21D;64295;44.772;39.872;2023-03-14T06:43:57;5.90;65.39
75683;HTU21D;64295;44.772;39.872;2023-03-14T06:46:23;5.96;65.34
75683;HTU21D;64295;44.772;39.872;2023-03-14T06:48:49;6.07;65.24
75683;HTU21D;64295;44.772;39.872;2023-03-14T06:51:15;6.19;65.05
75683;HTU21D;64295;44.772;39.872;2023-03-14T06:53:41;6.26;64.95
75683;HTU21D;64295;44.772;39.872;2023-03-14T06:56:07;6.31;64.95
75683;HTU21D;64295;44.772;39.872;2023-03-14T06:58:34;6.33;64.99
75683;HTU21D;64295;44.772;39.872;2023-03-14T07:01:02;6.30;65.07
75683;HTU21D;64295;44.772;39.872;2023-03-14T07:03:34;6.35;65.21
75683;HTU21D;64295;44.772;39.872;2023-03-14T07:06:00;6.46;64.89
75683;HTU21D;64295;44.772;39.872;2023-03-14T07:08:27;6.51;64.86
75683;HTU21D;64295;44.772;39.872;2023-03-14T07:10:52;6.52;64.91
75683;HTU21D;64295;44.772;39.872;2023-03-14T07:13:21;6.55;64.94
75683;HTU21D;64295;44.772;39.872;2023-03-14T07:15:53;6.58;64.88
75683;HTU21D;64295;44.772;39.872;2023-03-14T07:18:19;6.60;64.92
75683;HTU21D;64295;44.772;39.872;2023-03-14T07:20:46;6.57;64.99
75683;HTU21D;64295;44.772;39.872;2023-03-14T07:23:13;6.57;65.01
75683;HTU21D;64295;44.772;39.872;2023-03-14T07:25:45;6.55;65.04
75683;HTU21D;64295;44.772;39.872;2023-03-14T07:28:12;6.51;65.10
75683;HTU21D;64295;44.772;39.872;2023-03-14T07:30:40;6.48;65.17
75683;HTU21D;64295;44.772;39.872;2023-03-14T07:33:13;6.46;65.21
75683;HTU21D;64295;44.772;39.872;2023-03-14T07:35:39;6.43;65.23
75683;HTU21D;64295;44.772;39.872;2023-03-14T07:38:05;6.43;65.26
75683;HTU21D;64295;44.772;39.872;2023-03-14T07:40:36;6.43;65.23
75683;HTU21D;64295;44.772;39.872;2023-03-14T07:43:04;6.39;65.23
75683;HTU21D;64295;44.772;39.872;2023-03-14T07:45:47;6.35;65.30
75683;HTU21D;64295;44.772;39.872;2023-03-14T07:48:12;6.30;65.32
75683;HTU21D;64295;44.772;39.872;2023-03-14T07:50:38;6.33;65.31
75683;HTU21D;64295;44.772;39.872;2023-03-14T07:53:04;6.29;65.30
75683;HTU21D;64295;44.772;39.872;2023-03-14T07:55:30;6.29;65.30
75683;HTU21D;64295;44.772;39.872;2023-03-14T07:57:56;6.27;65.31
75683;HTU21D;64295;44.772;39.872;2023-03-14T08:00:22;6.27;65.28
75683;HTU21D;64295;44.772;39.872;2023-03-14T08:02:48;6.27;65.29
75683;HTU21D;64295;44.772;39.872;2023-03-14T08:05:14;6.29;65.24
75683;HTU21D;64295;44.772;39.872;2023-03-14T08:07:39;6.31;65.20
75683;HTU21D;64295;44.772;39.872;2023-03-14T08:10:06;6.34;65.16
75683;HTU21D;64295;44.772;39.872;2023-03-14T08:12:32;6.35;65.14
75683;HTU21D;64295;44.772;39.872;2023-03-14T08:15:00;6.46;65.07
75683;HTU21D;64295;44.772;39.872;2023-03-14T08:17:26;6.53;64.95
75683;HTU21D;64295;44.772;39.872;2023-03-14T08:19:52;6.55;64.95
75683;HTU21D;64295;44.772;39.872;2023-03-14T08:22:18;6.55;64.96
75683;HTU21D;64295;44.772;39.872;2023-03-14T08:24:44;6.56;65.00
75683;HTU21D;64295;44.772;39.872;2023-03-14T08:27:10;6.58;64.98
75683;HTU21D;64295;44.772;39.872;2023-03-14T08:29:36;6.60;64.95
75683;HTU21D;64295;44.772;39.872;2023-03-14T08:32:02;6.63;64.98
75683;HTU21D;64295;44.772;39.872;2023-03-14T08:34:27;6.68;64.92
75683;HTU21D;64295;44.772;39.872;2023-03-14T08:36:53;6.73;64.85
75683;HTU21D;64295;44.772;39.872;2023-03-14T08:39:22;6.80;64.76
75683;HTU21D;64295;44.772;39.872;2023-03-14T08:41:49;6.86;64.70
75683;HTU21D;64295;44.772;39.872;2023-03-14T08:44:15;6.87;64.69
75683;HTU21D;64295;44.772;39.872;2023-03-14T08:46:41;6.93;64.63
75683;HTU21D;64295;44.772;39.872;2023-03-14T08:49:07;7.01;64.56
75683;HTU21D;64295;44.772;39.872;2023-03-14T08:51:32;7.13;64.38
75683;HTU21D;64295;44.772;39.872;2023-03-14T08:53:58;7.24;64.22
75683;HTU21D;64295;44.772;39.872;2023-03-14T08:56:24;7.34;64.12
75683;HTU21D;64295;44.772;39.872;2023-03-14T08:58:50;7.48;63.94
75683;HTU21D;64295;44.772;39.872;2023-03-14T09:01:16;7.61;63.79
75683;HTU21D;64295;44.772;39.872;2023-03-14T09:03:42;7.77;63.63
75683;HTU21D;64295;44.772;39.872;2023-03-14T09:06:09;7.96;63.44
75683;HTU21D;64295;44.772;39.872;2023-03-14T09:08:35;8.12;63.23
75683;HTU21D;64295;44.772;39.872;2023-03-14T09:11:02;8.23;63.08
75683;HTU21D;64295;44.772;39.872;2023-03-14T09:13:28;8.31;63.05
75683;HTU21D;64295;44.772;39.872;2023-03-14T09:15:57;8.32;63.14
75683;HTU21D;64295;44.772;39.872;2023-03-14T09:18:23;8.39;63.12
75683;HTU21D;64295;44.772;39.872;2023-03-14T09:20:49;8.45;63.15
75683;HTU21D;64295;44.772;39.872;2023-03-14T09:23:15;8.52;63.09
75683;HTU21D;64295;44.772;39.872;2023-03-14T09:25:41;8.62;62.92
75683;HTU21D;64295;44.772;39.872;2023-03-14T09:28:07;8.75;62.84
75683;HTU21D;64295;44.772;39.872;2023-03-14T09:30:33;8.94;62.60
75683;HTU21D;64295;44.772;39.872;2023-03-14T09:32:59;9.15;62.32
75683;HTU21D;64295;44.772;39.872;2023-03-14T09:35:25;9.29;62.17
75683;HTU21D;64295;44.772;39.872;2023-03-14T09:37:51;9.36;62.12
75683;HTU21D;64295;44.772;39.872;2023-03-14T09:40:19;9.35;62.08
75683;HTU21D;64295;44.772;39.872;2023-03-14T09:42:48;9.37;62.15
75683;HTU21D;64295;44.772;39.872;2023-03-14T09:45:25;9.54;62.03
75683;HTU21D;64295;44.772;39.872;2023-03-14T09:47:53;9.65;61.88
75683;HTU21D;64295;44.772;39.872;2023-03-14T09:50:19;9.84;61.74
75683;HTU21D;64295;44.772;39.872;2023-03-14T09:52:48;10.00;61.56
75683;HTU21D;64295;44.772;39.872;2023-03-14T09:55:18;10.19;61.37
75683;HTU21D;64295;44.772;39.872;2023-03-14T09:57:46;10.35;61.18
75683;HTU21D;64295;44.772;39.872;2023-03-14T10:00:17;10.36;61.03
75683;HTU21D;64295;44.772;39.872;2023-03-14T10:02:53;10.34;61.15
75683;HTU21D;64295;44.772;39.872;2023-03-14T10:05:23;10.30;61.34
75683;HTU21D;64295;44.772;39.872;2023-03-14T10:07:49;10.28;61.44
75683;HTU21D;64295;44.772;39.872;2023-03-14T10:10:20;10.28;61.49
75683;HTU21D;64295;44.772;39.872;2023-03-14T10:12:49;10.26;61.54
75683;HTU21D;64295;44.772;39.872;2023-03-14T10:15:31;10.23;61.63
75683;HTU21D;64295;44.772;39.872;2023-03-14T10:18:00;10.21;61.62
75683;HTU21D;64295;44.772;39.872;2023-03-14T10:25:43;10.27;61.68
75683;HTU21D;64295;44.772;39.872;2023-03-14T10:28:26;10.23;61.70
75683;HTU21D;64295;44.772;39.872;2023-03-14T10:30:54;10.15;61.83
75683;HTU21D;64295;44.772;39.872;2023-03-14T10:33:25;10.11;61.90
75683;HTU21D;64295;44.772;39.872;2023-03-14T10:35:59;10.11;61.93
75683;HTU21D;64295;44.772;39.872;2023-03-14T10:38:38;10.18;61.84
75683;HTU21D;64295;44.772;39.872;2023-03-14T10:41:16;10.23;61.80
75683;HTU21D;64295;44.772;39.872;2023-03-14T10:43:42;10.26;61.75
75683;HTU21D;64295;44.772;39.872;2023-03-14T10:46:15;10.22;61.86
75683;HTU21D;64295;44.772;39.872;2023-03-14T10:49:05;10.20;61.97
75683;HTU21D;64295;44.772;39.872;2023-03-14T10:51:32;10.22;61.97
75683;HTU21D;64295;44.772;39.872;2023-03-14T10:54:24;10.25;61.89
75683;HTU21D;64295;44.772;39.872;2023-03-14T10:56:58;10.27;61.81
75683;HTU21D;64295;44.772;39.872;2023-03-14T10:59:24;10.34;61.73
75683;HTU21D;64295;44.772;39.872;2023-03-14T11:07:31;10.36;61.66
75683;HTU21D;64295;44.772;39.872;2023-03-14T11:14:58;10.48;61.54
75683;HTU21D;64295;44.772;39.872;2023-03-14T11:17:34;10.49;61.54
75683;HTU21D;64295;44.772;39.872;2023-03-14T11:23:06;10.53;61.50
75683;HTU21D;64295;44.772;39.872;2023-03-14T11:25:54;10.54;61.50
75683;HTU21D;64295;44.772;39.872;2023-03-14T11:31:31;10.57;61.47
75683;HTU21D;64295;44.772;39.872;2023-03-14T11:37:01;10.64;61.41
75683;HTU21D;64295;44.772;39.872;2023-03-14T11:39:40;10.66;61.37
75683;HTU21D;64295;44.772;39.872;2023-03-14T11:42:17;10.64;61.35
75683;HTU21D;64295;44.772;39.872;2023-03-14T11:44:48;10.60;61.45
75683;HTU21D;64295;44.772;39.872;2023-03-14T11:52:22;10.58;61.49
75683;HTU21D;64295;44.772;39.872;2023-03-14T11:55:19;10.57;61.54
75683;HTU21D;64295;44.772;39.872;2023-03-14T11:57:48;10.57;61.57
75683;HTU21D;64295;44.772;39.872;2023-03-14T12:00:23;10.63;61.54
75683;HTU21D;64295;44.772;39.872;2023-03-14T12:06:21;10.94;61.16
75683;HTU21D;64295;44.772;39.872;2023-03-14T12:09:00;11.14;60.80
75683;HTU21D;64295;44.772;39.872;2023-03-14T12:13:54;11.37;60.54
75683;HTU21D;64295;44.772;39.872;2023-03-14T12:18:50;11.36;60.72
75683;HTU21D;64295;44.772;39.872;2023-03-14T12:21:16;11.37;60.81
75683;HTU21D;64295;44.772;39.872;2023-03-14T12:23:50;11.43;60.78
75683;HTU21D;64295;44.772;39.872;2023-03-14T12:26:22;11.52;60.70
75683;HTU21D;64295;44.772;39.872;2023-03-14T12:29:11;11.57;60.69
75683;HTU21D;64295;44.772;39.872;2023-03-14T12:32:29;11.60;60.66
75683;HTU21D;64295;44.772;39.872;2023-03-14T12:34:41;11.58;60.77
75683;HTU21D;64295;44.772;39.872;2023-03-14T12:40:21;11.74;60.69
75683;HTU21D;64295;44.772;39.872;2023-03-14T12:42:57;11.77;60.65
75683;HTU21D;64295;44.772;39.872;2023-03-14T12:45:34;11.82;60.69
75683;HTU21D;64295;44.772;39.872;2023-03-14T12:50:46;11.77;60.88
75683;HTU21D;64295;44.772;39.872;2023-03-14T12:56:17;11.77;61.02
75683;HTU21D;64295;44.772;39.872;2023-03-14T13:01:59;11.97;60.84
75683;HTU21D;64295;44.772;39.872;2023-03-14T13:04:29;12.13;60.60
75683;HTU21D;64295;44.772;39.872;2023-03-14T13:06:58;12.15;60.54
75683;HTU21D;64295;44.772;39.872;2023-03-14T13:11:56;12.11;60.72
75683;HTU21D;64295;44.772;39.872;2023-03-14T13:14:22;12.07;60.83
75683;HTU21D;64295;44.772;39.872;2023-03-14T13:16:49;12.02;60.89
75683;HTU21D;64295;44.772;39.872;2023-03-14T13:19:25;12.02;60.96
75683;HTU21D;64295;44.772;39.872;2023-03-14T13:21:59;12.05;60.92
75683;HTU21D;64295;44.772;39.872;2023-03-14T13:24:28;12.06;60.85
75683;HTU21D;64295;44.772;39.872;2023-03-14T13:26:55;12.00;60.90
75683;HTU21D;64295;44.772;39.872;2023-03-14T13:29:27;11.93;61.01
75683;HTU21D;64295;44.772;39.872;2023-03-14T13:31:58;11.85;61.15
75683;HTU21D;64295;44.772;39.872;2023-03-14T13:34:31;11.77;61.28
75683;HTU21D;64295;44.772;39.872;2023-03-14T13:36:57;11.73;61.34
75683;HTU21D;64295;44.772;39.872;2023-03-14T13:39:25;11.71;61.38
75683;HTU21D;64295;44.772;39.872;2023-03-14T13:41:52;11.68;61.40
75683;HTU21D;64295;44.772;39.872;2023-03-14T13:44:29;11.70;61.41
75683;HTU21D;64295;44.772;39.872;2023-03-14T13:47:00;11.71;61.37
75683;HTU21D;64295;44.772;39.872;2023-03-14T13:49:28;11.71;61.32
75683;HTU21D;64295;44.772;39.872;2023-03-14T13:51:56;11.70;61.37
75683;HTU21D;64295;44.772;39.872;2023-03-14T13:54:22;11.68;61.41
75683;HTU21D;64295;44.772;39.872;2023-03-14T13:57:02;11.68;61.42
75683;HTU21D;64295;44.772;39.872;2023-03-14T13:59:34;11.66;61.40
75683;HTU21D;64295;44.772;39.872;2023-03-14T14:02:06;11.70;61.35
75683;HTU21D;64295;44.772;39.872;2023-03-14T14:04:38;11.69;61.28
75683;HTU21D;64295;44.772;39.872;2023-03-14T14:07:10;11.67;61.31
75683;HTU21D;64295;44.772;39.872;2023-03-14T14:09:40;11.63;61.34
75683;HTU21D;64295;44.772;39.872;2023-03-14T14:12:29;11.59;61.40
75683;HTU21D;64295;44.772;39.872;2023-03-14T14:15:22;11.54;61.45
75683;HTU21D;64295;44.772;39.872;2023-03-14T14:17:54;11.49;61.46
75683;HTU21D;64295;44.772;39.872;2023-03-14T14:20:37;11.45;61.53
75683;HTU21D;64295;44.772;39.872;2023-03-14T14:23:07;11.40;61.57
75683;HTU21D;64295;44.772;39.872;2023-03-14T14:25:34;11.31;61.58
75683;HTU21D;64295;44.772;39.872;2023-03-14T14:28:17;11.22;61.71
75683;HTU21D;64295;44.772;39.872;2023-03-14T14:30:43;11.13;61.76
75683;HTU21D;64295;44.772;39.872;2023-03-14T14:33:18;11.02;61.85
75683;HTU21D;64295;44.772;39.872;2023-03-14T14:35:58;10.95;61.89
75683;HTU21D;64295;44.772;39.872;2023-03-14T14:38:26;10.89;61.92
75683;HTU21D;64295;44.772;39.872;2023-03-14T14:40:54;10.80;61.98
75683;HTU21D;64295;44.772;39.872;2023-03-14T14:43:24;10.75;62.03
75683;HTU21D;64295;44.772;39.872;2023-03-14T14:45:53;10.70;62.05
75683;HTU21D;64295;44.772;39.872;2023-03-14T14:48:25;10.60;62.12
75683;HTU21D;64295;44.772;39.872;2023-03-14T14:50:59;10.54;62.16
75683;HTU21D;64295;44.772;39.872;2023-03-14T14:53:38;10.45;62.22
75683;HTU21D;64295;44.772;39.872;2023-03-14T14:56:07;10.40;62.24
75683;HTU21D;64295;44.772;39.872;2023-03-14T14:58:40;10.33;62.28
75683;HTU21D;64295;44.772;39.872;2023-03-14T15:01:17;10.23;62.34
75683;HTU21D;64295;44.772;39.872;2023-03-14T15:03:44;10.16;62.41
75683;HTU21D;64295;44.772;39.872;2023-03-14T15:06:13;10.09;62.45
75683;HTU21D;64295;44.772;39.872;2023-03-14T15:08:39;10.04;62.46
75683;HTU21D;64295;44.772;39.872;2023-03-14T15:11:05;9.97;62.51
75683;HTU21D;64295;44.772;39.872;2023-03-14T15:13:31;9.92;62.55
75683;HTU21D;64295;44.772;39.872;2023-03-14T15:15:57;9.88;62.60
75683;HTU21D;64295;44.772;39.872;2023-03-14T15:18:25;9.81;62.65
75683;HTU21D;64295;44.772;39.872;2023-03-14T15:20:51;9.77;62.65
75683;HTU21D;64295;44.772;39.872;2023-03-14T15:23:19;9.72;62.68
75683;HTU21D;64295;44.772;39.872;2023-03-14T15:25:45;9.67;62.68
75683;HTU21D;64295;44.772;39.872;2023-03-14T15:28:27;9.62;62.72
75683;HTU21D;64295;44.772;39.872;2023-03-14T15:30:57;9.59;62.72
75683;HTU21D;64295;44.772;39.872;2023-03-14T15:33:25;9.51;62.76
75683;HTU21D;64295;44.772;39.872;2023-03-14T15:35:52;9.48;62.78
75683;HTU21D;64295;44.772;39.872;2023-03-14T15:38:20;9.42;62.82
75683;HTU21D;64295;44.772;39.872;2023-03-14T15:40:49;9.39;62.81
75683;HTU21D;64295;44.772;39.872;2023-03-14T15:43:16;9.41;62.80
75683;HTU21D;64295;44.772;39.872;2023-03-14T15:45:42;9.40;62.66
75683;HTU21D;64295;44.772;39.872;2023-03-14T15:48:16;9.37;62.69
75683;HTU21D;64295;44.772;39.872;2023-03-14T15:50:43;9.31;62.74
75683;HTU21D;64295;44.772;39.872;2023-03-14T15:53:09;9.26;62.77
75683;HTU21D;64295;44.772;39.872;2023-03-14T15:55:35;9.20;62.82
75683;HTU21D;64295;44.772;39.872;2023-03-14T15:58:01;9.15;62.83
75683;HTU21D;64295;44.772;39.872;2023-03-14T16:00:28;9.11;62.89
75683;HTU21D;64295;44.772;39.872;2023-03-14T16:02:55;9.35;62.56
75683;HTU21D;64295;44.772;39.872;2023-03-14T16:05:21;9.34;62.45
75683;HTU21D;64295;44.772;39.872;2023-03-14T16:07:47;9.25;62.60
75683;HTU21D;64295;44.772;39.872;2023-03-14T16:10:14;9.24;62.66
75683;HTU21D;64295;44.772;39.872;2023-03-14T16:12:40;9.17;62.72
75683;HTU21D;64295;44.772;39.872;2023-03-14T16:15:08;9.10;62.79
75683;HTU21D;64295;44.772;39.872;2023-03-14T16:17:34;9.09;62.86
75683;HTU21D;64295;44.772;39.872;2023-03-14T16:20:00;9.06;62.82
75683;HTU21D;64295;44.772;39.872;2023-03-14T16:22:26;9.03;62.86
75683;HTU21D;64295;44.772;39.872;2023-03-14T16:24:52;9.01;62.85
75683;HTU21D;64295;44.772;39.872;2023-03-14T16:27:18;9.00;62.86
75683;HTU21D;64295;44.772;39.872;2023-03-14T16:29:44;8.96;62.89